West Liberty, Iowa
Current Conditions -  °F | °C
As of 10:55 PM on Monday 22 Dec 2014 (Local Time) from KMUT Reporting Station
Light Rain Light Rain  
Wind Chill:   Ceiling: 400
Heat Index:   Visibility: 3mi
Dew Point:   Wind: 5mph
Humidity: 93%   Direction: 100°E
Pressure: 29.47"   Gusts: NA
Location:  41.57°N, 91.26°W
Report Text: KMUT 230455Z AUTO 10004KT 3SM -RA OVC004 07/06 A2947 RMK AO2 P0011
Loading
Personal Weather Stations






























Interactive Weather Map New forecast layout! Learn more

10-Day Weather Forecast

Advertisements
Track Severe Weather on mobile